Time;durP1;ratioP1;P1;durP2;ratioP2;P2;SDS_P1;SDS_P2;PMS_P1;PMS_P2;Temp;Humidity;BMP_temperature;BMP_pressure;BME280_temperature;BME280_humidity;BME280_pressure;Samples;Min_cycle;Max_cycle;Signal;HPM_P1;HPM_P2
2022/09/13 00:01:07;;;;;;;;;;;;;;;18.20;81.89;100990.59;5093889;28;19912;-35
2022/09/13 00:03:32;;;;;;;;;;;;;;;18.18;82.06;100984.59;5094441;28;19911;-35
2022/09/13 00:05:58;;;;;;;;;;;;;;;18.18;81.68;100992.78;5093717;28;20066;-35
2022/09/13 00:08:24;;;;;;;;;;;;;;;18.19;81.58;100995.25;5093667;28;19969;-35
2022/09/13 00:10:49;;;;;;;;;;;;;;;18.19;81.60;100988.94;5093594;28;19912;-35
2022/09/13 00:13:15;;;;;;;;;;;;;;;18.20;81.39;100990.59;5093742;28;19926;-35
2022/09/13 00:15:41;;;;;;;;;;;;;;;18.21;81.81;100995.00;5093504;28;19923;-35
2022/09/13 00:18:07;;;;;;;;;;;;;;;18.19;81.82;100995.25;5092793;28;20347;-35
2022/09/13 00:20:32;;;;;;;;;;;;;;;18.18;81.52;100982.66;5093728;28;19969;-35
2022/09/13 00:22:57;;;;;;;;;;;;;;;18.18;81.56;100988.13;5093738;28;19957;-35
2022/09/13 00:25:22;;;;;;;;;;;;;;;18.17;81.56;100983.75;5093396;28;19989;-35
2022/09/13 00:27:47;;;;;;;;;;;;;;;18.14;82.20;100986.22;5093683;28;19912;-35
2022/09/13 00:30:13;;;;;;;;;;;;;;;18.14;82.12;100975.28;5093544;28;19912;-35
2022/09/13 00:32:38;;;;;;;;;;;;;;;18.12;82.35;100972.84;5093589;28;20305;-35
2022/09/13 00:35:04;;;;;;;;;;;;;;;18.10;82.30;100971.47;5093228;28;20366;-35
2022/09/13 00:37:32;;;;;;;;;;;;;;;18.10;81.94;100958.59;5092975;28;20391;-35
2022/09/13 00:39:57;;;;;;;;;;;;;;;18.09;82.13;100961.63;5093228;28;19912;-35
2022/09/13 00:42:26;;;;;;;;;;;;;;;18.08;82.22;100963.53;5093346;28;20255;-35
2022/09/13 00:44:52;;;;;;;;;;;;;;;18.06;81.77;100951.25;5093017;28;19916;-35
2022/09/13 00:47:24;;;;;;;;;;;;;;;18.06;81.83;100956.72;5093950;28;19912;-35
2022/09/13 00:49:50;;;;;;;;;;;;;;;18.05;81.98;100958.59;5092893;28;19943;-35
2022/09/13 00:52:18;;;;;;;;;;;;;;;18.05;81.80;100958.59;5093336;28;19916;-35
2022/09/13 00:54:46;;;;;;;;;;;;;;;18.07;81.88;100955.63;5091508;28;19965;-35
2022/09/13 00:57:12;;;;;;;;;;;;;;;18.06;81.84;100943.03;5093075;28;19916;-35
2022/09/13 00:59:41;;;;;;;;;;;;;;;18.06;81.77;100948.50;5093075;28;19912;-35
2022/09/13 01:02:08;;;;;;;;;;;;;;;18.05;81.77;100942.19;5092778;28;19999;-35
2022/09/13 01:04:34;;;;;;;;;;;;;;;18.05;81.57;100947.66;5093021;28;20364;-35
2022/09/13 01:07:08;;;;;;;;;;;;;;;18.05;81.68;100950.41;5095953;28;20061;-35
2022/09/13 01:09:38;;;;;;;;;;;;;;;18.04;81.48;100942.47;5097203;28;19923;-35
2022/09/13 01:12:14;;;;;;;;;;;;;;;18.03;81.65;100944.41;5097159;28;19919;-35
2022/09/13 01:14:39;;;;;;;;;;;;;;;18.05;81.70;100944.94;5097488;28;19912;-35
2022/09/13 01:17:04;;;;;;;;;;;;;;;18.04;81.85;100945.22;5096520;28;20049;-35
2022/09/13 01:19:30;;;;;;;;;;;;;;;17.99;81.41;100944.13;5096722;28;19959;-35
2022/09/13 01:21:55;;;;;;;;;;;;;;;18.00;81.60;100947.69;5096931;28;19911;-35
2022/09/13 01:24:39;;;;;;;;;;;;;;;17.98;81.74;100950.69;5096582;28;19918;-35
2022/09/13 01:27:23;;;;;;;;;;;;;;;17.97;81.75;100949.06;5096810;28;19912;-35
2022/09/13 01:30:03;;;;;;;;;;;;;;;17.98;81.85;100947.16;5096505;28;19951;-35
2022/09/13 01:32:43;;;;;;;;;;;;;;;17.97;81.59;100948.25;5096954;28;19935;-35
2022/09/13 01:35:27;;;;;;;;;;;;;;;17.97;81.35;100951.00;5096892;28;19962;-35
2022/09/13 01:38:11;;;;;;;;;;;;;;;17.94;81.29;100946.88;5096849;28;19969;-35
2022/09/13 01:40:42;;;;;;;;;;;;;;;17.95;81.21;100944.97;5096325;28;19916;-35
2022/09/13 01:43:23;;;;;;;;;;;;;;;17.96;81.47;100941.16;5096101;28;19912;-35
2022/09/13 01:46:06;;;;;;;;;;;;;;;17.97;81.31;100937.31;5096128;28;19912;-35
2022/09/13 01:48:50;;;;;;;;;;;;;;;17.95;81.40;100943.03;5096145;28;19920;-35
2022/09/13 01:51:28;;;;;;;;;;;;;;;17.96;81.47;100943.88;5095794;28;20275;-35
2022/09/13 01:54:08;;;;;;;;;;;;;;;17.93;81.62;100937.03;5096218;28;19919;-35
2022/09/13 01:56:34;;;;;;;;;;;;;;;17.93;81.38;100933.50;5096679;28;20141;-35
2022/09/13 01:59:03;;;;;;;;;;;;;;;17.92;81.32;100937.31;5096486;28;20010;-35
2022/09/13 02:01:29;;;;;;;;;;;;;;;17.92;81.73;100942.81;5096949;28;20004;-35
2022/09/13 02:03:54;;;;;;;;;;;;;;;17.90;81.71;100929.38;5095900;28;19955;-35
2022/09/13 02:06:22;;;;;;;;;;;;;;;17.91;81.80;100935.66;5096643;28;19912;-35
2022/09/13 02:08:50;;;;;;;;;;;;;;;17.90;81.73;100926.63;5095858;28;19977;-35
2022/09/13 02:11:16;;;;;;;;;;;;;;;17.90;81.92;100929.38;5095684;28;20310;-35
2022/09/13 02:14:00;;;;;;;;;;;;;;;17.89;81.99;100925.00;5095372;28;19969;-35
2022/09/13 02:16:29;;;;;;;;;;;;;;;17.88;81.97;100922.56;5095269;28;19912;-35
2022/09/13 02:18:58;;;;;;;;;;;;;;;17.88;81.69;100925.28;5094916;28;20006;-35
2022/09/13 02:21:26;;;;;;;;;;;;;;;17.87;82.16;100931.88;5095140;28;20356;-34
2022/09/13 02:24:00;;;;;;;;;;;;;;;17.86;82.11;100932.94;5095124;28;20027;-34
2022/09/13 02:26:28;;;;;;;;;;;;;;;17.84;82.17;100938.69;5095637;28;19918;-34
2022/09/13 02:28:54;;;;;;;;;;;;;;;17.85;82.10;100928.56;5095677;28;19958;-34
2022/09/13 02:31:32;;;;;;;;;;;;;;;17.85;81.92;100928.56;5095023;28;20276;-34
2022/09/13 02:33:59;;;;;;;;;;;;;;;17.86;82.32;100933.78;5095441;28;19948;-34
2022/09/13 02:36:30;;;;;;;;;;;;;;;17.85;81.98;100929.38;5095243;28;19912;-34
2022/09/13 02:38:55;;;;;;;;;;;;;;;17.84;82.41;100929.69;5095529;28;20303;-35
2022/09/13 02:41:29;;;;;;;;;;;;;;;17.82;82.37;100932.69;5095156;28;19916;-35
2022/09/13 02:44:03;;;;;;;;;;;;;;;17.80;82.48;100934.06;5095109;28;19955;-35
2022/09/13 02:46:47;;;;;;;;;;;;;;;17.79;82.65;100935.16;5094990;28;20338;-35
2022/09/13 02:49:12;;;;;;;;;;;;;;;17.79;82.29;100946.09;5094897;28;19919;-35
2022/09/13 02:51:47;;;;;;;;;;;;;;;17.79;82.61;100946.09;5094916;28;19912;-35
2022/09/13 02:54:29;;;;;;;;;;;;;;;17.78;82.58;100944.47;5095050;28;20306;-35
2022/09/13 02:56:54;;;;;;;;;;;;;;;17.77;82.52;100949.13;5094535;28;19934;-35
2022/09/13 02:59:21;;;;;;;;;;;;;;;17.79;82.64;100957.03;5095518;28;19912;-35
2022/09/13 03:01:48;;;;;;;;;;;;;;;17.80;82.37;100950.47;5094620;28;20388;-35
2022/09/13 03:04:14;;;;;;;;;;;;;;;17.81;82.40;100954.84;5094447;28;19912;-35
2022/09/13 03:06:40;;;;;;;;;;;;;;;17.82;82.36;100951.03;5094909;28;20053;-35
2022/09/13 03:09:05;;;;;;;;;;;;;;;17.80;82.85;100947.72;5095436;28;19927;-35
2022/09/13 03:11:39;;;;;;;;;;;;;;;17.79;82.57;100954.31;5094486;28;19916;-35
2022/09/13 03:14:10;;;;;;;;;;;;;;;17.78;82.54;100953.50;5095015;28;20006;-35
2022/09/13 03:16:38;;;;;;;;;;;;;;;17.75;82.49;100954.84;5094106;28;19912;-35
2022/09/13 03:19:03;;;;;;;;;;;;;;;17.75;82.32;100948.56;5094342;28;19919;-35
2022/09/13 03:21:38;;;;;;;;;;;;;;;17.73;82.37;100948.84;5093966;28;19916;-35
2022/09/13 03:24:09;;;;;;;;;;;;;;;17.73;82.69;100943.38;5094583;28;19957;-34
2022/09/13 03:27:04;;;;;;;;;;;;;;;17.72;82.77;100941.72;5094212;28;19919;-35
2022/09/13 03:29:30;;;;;;;;;;;;;;;17.71;82.63;100952.91;5011038;28;19914;-35
2022/09/13 03:32:24;;;;;;;;;;;;;;;17.71;82.69;100951.03;5012360;28;19920;-35
2022/09/13 03:34:50;;;;;;;;;;;;;;;17.70;82.79;100954.81;4953874;29;19914;-35
2022/09/13 03:37:21;;;;;;;;;;;;;;;17.69;82.75;100938.69;4937722;29;19915;-35
2022/09/13 03:39:49;;;;;;;;;;;;;;;17.67;83.13;100936.25;4953695;29;19914;-35
2022/09/13 03:42:43;;;;;;;;;;;;;;;17.65;82.83;100932.97;4953423;29;20065;-35
2022/09/13 03:45:10;;;;;;;;;;;;;;;17.63;82.91;100937.91;4896468;29;19959;-35
2022/09/13 03:47:36;;;;;;;;;;;;;;;17.63;83.13;100929.69;4896850;29;19922;-35
2022/09/13 03:50:04;;;;;;;;;;;;;;;17.61;83.09;100929.13;4896414;29;19977;-35
2022/09/13 03:52:29;;;;;;;;;;;;;;;17.60;83.35;100926.69;4896721;29;20402;-35
2022/09/13 03:54:54;;;;;;;;;;;;;;;17.58;83.32;100924.22;4896312;29;19915;-34
2022/09/13 03:57:20;;;;;;;;;;;;;;;17.57;83.70;100935.44;4896392;29;20305;-34
2022/09/13 03:59:47;;;;;;;;;;;;;;;17.55;83.54;100930.25;4896307;29;20047;-34
2022/09/13 04:02:13;;;;;;;;;;;;;;;17.56;83.18;100936.53;4880366;29;19922;-34
2022/09/13 04:04:41;;;;;;;;;;;;;;;17.55;83.19;100941.19;4896149;29;19915;-34
2022/09/13 04:07:07;;;;;;;;;;;;;;;17.55;83.53;100945.84;4933945;29;20009;-34
2022/09/13 04:09:32;;;;;;;;;;;;;;;17.53;83.40;100953.50;4933853;29;20375;-34
2022/09/13 04:11:57;;;;;;;;;;;;;;;17.50;83.29;100960.31;4981379;28;19913;-35
2022/09/13 04:14:25;;;;;;;;;;;;;;;17.48;83.57;100965.25;4991494;28;19937;-35
2022/09/13 04:16:50;;;;;;;;;;;;;;;17.47;83.47;100960.84;4992148;28;20358;-35
2022/09/13 04:19:16;;;;;;;;;;;;;;;17.46;83.48;100959.22;4991656;28;19920;-35
2022/09/13 04:21:41;;;;;;;;;;;;;;;17.43;83.46;100970.72;5050176;28;20329;-35
2022/09/13 04:24:06;;;;;;;;;;;;;;;17.41;83.63;100967.44;5093343;28;19919;-35
2022/09/13 04:26:33;;;;;;;;;;;;;;;17.39;83.41;100972.38;5093931;28;20301;-35
2022/09/13 04:28:59;;;;;;;;;;;;;;;17.36;83.80;100970.16;5093685;28;20002;-35
2022/09/13 04:31:24;;;;;;;;;;;;;;;17.33;83.54;100963.34;5093560;28;19995;-35
2022/09/13 04:33:49;;;;;;;;;;;;;;;17.32;83.77;100961.69;5093143;28;19912;-35
2022/09/13 04:36:15;;;;;;;;;;;;;;;17.31;83.69;100967.44;5093045;28;19912;-35
2022/09/13 04:38:40;;;;;;;;;;;;;;;17.29;84.00;100964.16;5093381;28;19920;-35
2022/09/13 04:41:06;;;;;;;;;;;;;;;17.29;83.82;100964.97;5093083;28;20025;-35
2022/09/13 04:43:31;;;;;;;;;;;;;;;17.29;83.98;100980.56;5097894;28;19930;-35
2022/09/13 04:46:00;;;;;;;;;;;;;;;17.29;83.64;100980.56;5097527;28;20352;-35
2022/09/13 04:48:25;;;;;;;;;;;;;;;17.28;84.16;100984.38;5097771;28;19912;-35
2022/09/13 04:50:50;;;;;;;;;;;;;;;17.27;83.96;100975.34;5097198;28;20382;-35
2022/09/13 04:53:16;;;;;;;;;;;;;;;17.27;84.28;100986.28;5096847;28;19919;-35
2022/09/13 04:55:41;;;;;;;;;;;;;;;17.26;83.85;100976.44;5096907;28;19926;-35
2022/09/13 04:58:07;;;;;;;;;;;;;;;17.26;83.87;100973.72;5097644;28;20360;-35
2022/09/13 05:00:32;;;;;;;;;;;;;;;17.27;84.04;100980.00;5097537;28;19969;-35
2022/09/13 05:02:58;;;;;;;;;;;;;;;17.27;84.02;100985.47;5097605;28;20356;-35
2022/09/13 05:05:24;;;;;;;;;;;;;;;17.27;84.26;100982.72;5096924;28;20379;-35
2022/09/13 05:07:50;;;;;;;;;;;;;;;17.27;84.36;100980.81;5096912;28;19912;-35
2022/09/13 05:10:15;;;;;;;;;;;;;;;17.28;84.36;100984.38;5097204;28;19923;-35
2022/09/13 05:12:41;;;;;;;;;;;;;;;17.27;84.65;100985.47;5097322;28;19915;-35
2022/09/13 05:15:06;;;;;;;;;;;;;;;17.28;84.79;100984.38;5096667;28;20009;-35
2022/09/13 05:17:31;;;;;;;;;;;;;;;17.28;84.79;100984.38;5096697;28;19912;-35
2022/09/13 05:19:57;;;;;;;;;;;;;;;17.27;84.83;100980.00;5096623;28;19976;-35
2022/09/13 05:22:22;;;;;;;;;;;;;;;17.27;84.77;100989.00;5096931;28;19919;-35
2022/09/13 05:24:47;;;;;;;;;;;;;;;17.28;84.60;100993.41;5096542;28;19920;-35
2022/09/13 05:27:12;;;;;;;;;;;;;;;17.25;84.55;100989.28;5095616;28;19965;-35
2022/09/13 05:29:37;;;;;;;;;;;;;;;17.24;84.75;100984.94;5096441;28;19916;-35
2022/09/13 05:32:03;;;;;;;;;;;;;;;17.23;84.72;100986.03;5096463;28;19940;-35
2022/09/13 05:34:28;;;;;;;;;;;;;;;17.25;84.77;100991.22;5096429;28;19912;-35
2022/09/13 05:36:53;;;;;;;;;;;;;;;17.26;84.66;100990.09;5096989;28;20344;-35
2022/09/13 05:39:20;;;;;;;;;;;;;;;17.27;85.00;100996.38;5096347;28;19912;-35
2022/09/13 05:41:46;;;;;;;;;;;;;;;17.27;84.82;100994.47;5096316;28;19916;-35
2022/09/13 05:44:11;;;;;;;;;;;;;;;17.28;84.79;100998.06;5096848;28;19923;-35
2022/09/13 05:46:36;;;;;;;;;;;;;;;17.31;84.85;100994.75;5096310;28;19918;-35
2022/09/13 05:49:01;;;;;;;;;;;;;;;17.32;84.95;100993.66;5096635;28;20457;-35
2022/09/13 05:51:27;;;;;;;;;;;;;;;17.32;85.17;100990.94;5095777;28;19912;-35
2022/09/13 05:53:53;;;;;;;;;;;;;;;17.34;84.91;100991.50;5095120;28;19961;-35
2022/09/13 05:56:22;;;;;;;;;;;;;;;17.35;85.06;100995.88;5096526;28;19912;-35
2022/09/13 05:58:48;;;;;;;;;;;;;;;17.36;85.50;100992.84;5096516;28;19912;-35
2022/09/13 06:01:15;;;;;;;;;;;;;;;17.39;85.50;100991.50;5095956;28;19919;-35
2022/09/13 06:03:40;;;;;;;;;;;;;;;17.41;85.21;100992.03;5095807;28;20263;-35
2022/09/13 06:06:06;;;;;;;;;;;;;;;17.44;85.48;100994.22;5096037;28;19915;-35
2022/09/13 06:08:32;;;;;;;;;;;;;;;17.48;85.25;100992.59;5096000;28;19923;-35
2022/09/13 06:10:59;;;;;;;;;;;;;;;17.50;85.42;100990.41;5095920;28;19919;-35
2022/09/13 06:13:25;;;;;;;;;;;;;;;17.51;85.37;100989.28;5096337;28;19958;-35
2022/09/13 06:15:50;;;;;;;;;;;;;;;17.53;84.99;100989.84;5095814;28;19955;-35
2022/09/13 06:18:16;;;;;;;;;;;;;;;17.56;85.46;100994.75;5096294;28;19984;-35
2022/09/13 06:20:41;;;;;;;;;;;;;;;17.61;85.30;101000.22;5095405;28;19920;-35
2022/09/13 06:23:07;;;;;;;;;;;;;;;17.64;85.19;101004.34;5096590;28;20026;-35
2022/09/13 06:25:32;;;;;;;;;;;;;;;17.66;84.81;101000.22;5096136;28;19912;-35
2022/09/13 06:27:57;;;;;;;;;;;;;;;17.70;85.30;100998.59;5095599;28;19912;-35
2022/09/13 06:30:22;;;;;;;;;;;;;;;17.74;85.11;100994.25;5095964;28;19912;-35
2022/09/13 06:32:47;;;;;;;;;;;;;;;17.78;85.24;100988.22;5096124;28;19920;-35
2022/09/13 06:35:13;;;;;;;;;;;;;;;17.81;85.09;100988.47;5095540;28;20276;-35
2022/09/13 06:37:38;;;;;;;;;;;;;;;17.84;85.02;100987.13;5095766;28;19912;-35
2022/09/13 06:40:04;;;;;;;;;;;;;;;17.87;84.77;100981.09;5095825;28;20006;-35
2022/09/13 06:42:29;;;;;;;;;;;;;;;17.89;85.07;100985.19;5095850;28;19969;-35
2022/09/13 06:44:54;;;;;;;;;;;;;;;17.92;85.02;100979.19;5095396;28;20356;-35
2022/09/13 06:47:19;;;;;;;;;;;;;;;17.95;84.99;100978.59;5095504;28;20317;-35
2022/09/13 06:49:45;;;;;;;;;;;;;;;17.96;84.46;100974.81;5095386;28;19912;-35
2022/09/13 06:52:10;;;;;;;;;;;;;;;17.98;84.51;100978.06;5095090;28;19924;-35
2022/09/13 06:54:35;;;;;;;;;;;;;;;18.03;84.92;100982.72;5094952;28;19977;-35
2022/09/13 06:57:02;;;;;;;;;;;;;;;18.09;85.11;100987.06;5094111;28;19969;-35
2022/09/13 06:59:27;;;;;;;;;;;;;;;18.14;85.49;100978.84;5094883;28;19935;-35
2022/09/13 07:01:52;;;;;;;;;;;;;;;18.19;85.19;100978.81;5095118;28;20356;-35
2022/09/13 07:04:18;;;;;;;;;;;;;;;18.23;85.24;100985.38;5095164;28;20194;-35
2022/09/13 07:06:45;;;;;;;;;;;;;;;18.29;85.23;100980.72;5095686;28;19912;-35
2022/09/13 07:09:12;;;;;;;;;;;;;;;18.36;84.89;100989.47;5094821;28;19969;-35
2022/09/13 07:11:39;;;;;;;;;;;;;;;18.41;84.91;100983.97;5094974;28;19919;-35
2022/09/13 07:14:07;;;;;;;;;;;;;;;18.48;84.64;100992.69;5094589;28;19918;-35
2022/09/13 07:16:34;;;;;;;;;;;;;;;18.52;84.44;100995.69;5094618;28;19926;-35
2022/09/13 07:19:01;;;;;;;;;;;;;;;18.55;84.66;100980.63;5094816;28;19916;-35
2022/09/13 07:21:27;;;;;;;;;;;;;;;18.58;84.66;100982.78;5094790;28;20256;-35
2022/09/13 07:23:53;;;;;;;;;;;;;;;18.62;84.85;100981.13;5094225;28;19919;-35
2022/09/13 07:26:18;;;;;;;;;;;;;;;18.65;84.59;100988.78;5094281;28;19919;-35
2022/09/13 07:28:45;;;;;;;;;;;;;;;18.75;84.86;100991.50;5094075;28;19958;-35
2022/09/13 07:31:12;;;;;;;;;;;;;;;18.80;85.25;100994.22;5094355;28;19912;-35
2022/09/13 07:33:38;;;;;;;;;;;;;;;18.78;84.65;100983.53;5094024;28;20374;-35
2022/09/13 07:36:07;;;;;;;;;;;;;;;18.87;84.74;100997.44;5094575;28;20271;-35
2022/09/13 07:38:36;;;;;;;;;;;;;;;18.91;84.84;100997.72;5094167;28;19912;-35
2022/09/13 07:41:05;;;;;;;;;;;;;;;18.98;84.53;100999.06;5093748;28;19922;-34
2022/09/13 07:43:30;;;;;;;;;;;;;;;19.06;84.59;101007.75;5093895;28;20015;-35
2022/09/13 07:45:59;;;;;;;;;;;;;;;19.14;84.69;101012.66;5094429;28;19978;-34
2022/09/13 07:48:25;;;;;;;;;;;;;;;19.21;84.60;101011.22;5092986;28;19919;-35
2022/09/13 07:51:04;;;;;;;;;;;;;;;19.29;84.57;101009.81;5093964;28;19912;-35
2022/09/13 07:53:30;;;;;;;;;;;;;;;19.36;85.42;101020.44;5094201;28;19916;-35
2022/09/13 07:56:01;;;;;;;;;;;;;;;19.42;84.72;101022.03;5093957;28;19919;-35
2022/09/13 07:58:27;;;;;;;;;;;;;;;19.47;84.90;101017.34;5093933;28;19912;-35
2022/09/13 08:00:52;;;;;;;;;;;;;;;19.55;85.19;101018.66;5093803;28;19923;-35
2022/09/13 08:03:17;;;;;;;;;;;;;;;19.63;85.20;101020.00;5093919;28;19912;-35
2022/09/13 08:05:42;;;;;;;;;;;;;;;19.71;84.95;101017.44;5093736;28;20012;-35
2022/09/13 08:08:08;;;;;;;;;;;;;;;19.80;84.91;101021.19;5094002;28;19915;-35
2022/09/13 08:10:33;;;;;;;;;;;;;;;19.87;85.08;101014.56;5093406;28;20057;-35
2022/09/13 08:12:59;;;;;;;;;;;;;;;19.93;85.36;101018.91;5093801;28;19911;-35
2022/09/13 08:15:24;;;;;;;;;;;;;;;20.01;84.85;101015.53;5092949;28;20003;-35
2022/09/13 08:17:49;;;;;;;;;;;;;;;20.09;85.02;101025.88;5093552;28;19957;-35
2022/09/13 08:20:15;;;;;;;;;;;;;;;20.15;85.12;101010.97;5093268;28;19959;-35
2022/09/13 08:22:40;;;;;;;;;;;;;;;20.21;85.35;101018.06;5093372;28;20410;-35
2022/09/13 08:25:05;;;;;;;;;;;;;;;20.25;85.39;101019.13;5093749;28;19965;-35
2022/09/13 08:27:31;;;;;;;;;;;;;;;20.29;85.83;101019.34;5093655;28;19916;-35
2022/09/13 08:29:56;;;;;;;;;;;;;;;20.38;86.48;101016.78;5093454;28;19915;-35
2022/09/13 08:32:21;;;;;;;;;;;;;;;20.46;85.67;101018.88;5094022;28;19916;-35
2022/09/13 08:34:46;;;;;;;;;;;;;;;20.56;85.61;101032.53;5093379;28;20356;-35
2022/09/13 08:37:11;;;;;;;;;;;;;;;20.66;85.34;101026.91;5093371;28;20392;-35
2022/09/13 08:39:37;;;;;;;;;;;;;;;20.76;84.90;101028.69;5093347;28;19912;-35
2022/09/13 08:42:22;;;;;;;;;;;;;;;20.86;84.93;101028.56;5093362;28;19919;-35
2022/09/13 08:44:51;;;;;;;;;;;;;;;20.95;85.24;101028.72;5092871;28;19912;-35
2022/09/13 08:47:20;;;;;;;;;;;;;;;20.91;84.70;101033.19;5093741;28;19912;-35
2022/09/13 08:49:47;;;;;;;;;;;;;;;20.92;84.70;101032.88;5092783;28;20241;-35
2022/09/13 08:52:24;;;;;;;;;;;;;;;21.00;84.30;101029.47;5093338;28;20283;-36
2022/09/13 08:54:50;;;;;;;;;;;;;;;21.06;84.26;101033.78;5093826;28;19912;-35
2022/09/13 08:57:25;;;;;;;;;;;;;;;21.13;83.82;101038.06;5093007;28;19919;-35
2022/09/13 09:00:03;;;;;;;;;;;;;;;21.22;83.90;101031.63;5093496;28;19912;-35
2022/09/13 09:02:47;;;;;;;;;;;;;;;21.34;83.80;101026.53;5093205;28;19962;-34
2022/09/13 09:05:17;;;;;;;;;;;;;;;21.50;82.63;101029.03;5093130;28;19912;-36
2022/09/13 09:07:46;;;;;;;;;;;;;;;21.55;81.33;101024.25;5093734;28;20003;-35
2022/09/13 09:10:20;;;;;;;;;;;;;;;21.60;81.95;101024.16;5092943;28;19966;-36
2022/09/13 09:12:48;;;;;;;;;;;;;;;21.69;82.04;101015.25;5093442;28;19912;-35
2022/09/13 09:15:16;;;;;;;;;;;;;;;21.75;81.68;101016.78;5092837;28;20359;-35
2022/09/13 09:17:45;;;;;;;;;;;;;;;21.85;82.06;101013.84;5092926;28;19923;-35
2022/09/13 09:20:19;;;;;;;;;;;;;;;21.96;81.94;101007.06;5101241;28;19927;-35
2022/09/13 09:22:45;;;;;;;;;;;;;;;22.07;80.57;101010.44;5112370;28;19958;-36
2022/09/13 09:25:10;;;;;;;;;;;;;;;22.18;80.78;100997.31;5111661;28;20108;-35
2022/09/13 09:27:36;;;;;;;;;;;;;;;22.27;80.67;100999.03;5109729;28;20011;-36
2022/09/13 09:30:01;;;;;;;;;;;;;;;22.39;80.59;101000.47;5096536;28;19967;-36
2022/09/13 09:32:37;;;;;;;;;;;;;;;22.38;79.56;101007.09;5096570;28;20006;-36
2022/09/13 09:35:09;;;;;;;;;;;;;;;22.35;79.47;101014.88;5096480;28;19912;-35
2022/09/13 09:37:35;;;;;;;;;;;;;;;22.34;79.38;101013.22;5096307;28;19927;-36
2022/09/13 09:40:06;;;;;;;;;;;;;;;22.35;79.85;101008.53;5096602;28;19965;-36
2022/09/13 09:42:37;;;;;;;;;;;;;;;22.31;79.47;101007.53;5095996;28;19916;-36
2022/09/13 09:45:04;;;;;;;;;;;;;;;22.28;79.78;101008.94;5096269;28;19981;-35
2022/09/13 09:47:37;;;;;;;;;;;;;;;22.24;79.88;101007.09;5101614;28;20010;-35
2022/09/13 09:50:09;;;;;;;;;;;;;;;22.26;80.02;101004.88;5106196;28;19919;-35
2022/09/13 09:52:50;;;;;;;;;;;;;;;22.27;80.00;101012.81;5117311;27;20006;-35
2022/09/13 09:55:25;;;;;;;;;;;;;;;22.32;80.01;101015.47;5116035;28;19919;-36
2022/09/13 09:57:56;;;;;;;;;;;;;;;22.30;79.78;101011.38;5109925;27;19915;-36
2022/09/13 10:00:23;;;;;;;;;;;;;;;22.28;80.21;101014.44;5114340;28;20435;-35
2022/09/13 10:02:50;;;;;;;;;;;;;;;22.31;80.23;101007.53;5116952;28;19912;-35
2022/09/13 10:05:19;;;;;;;;;;;;;;;22.36;79.97;101002.72;5116169;28;19911;-35
2022/09/13 10:07:51;;;;;;;;;;;;;;;22.56;80.17;101008.94;5114908;28;20325;-35
2022/09/13 10:10:36;;;;;;;;;;;;;;;22.82;79.81;101001.75;5115951;28;20379;-35
2022/09/13 10:13:03;;;;;;;;;;;;;;;22.97;78.03;101003.38;5115646;28;19916;-36
2022/09/13 10:15:32;;;;;;;;;;;;;;;22.99;78.36;101006.66;5116001;28;19915;-36
2022/09/13 10:18:02;;;;;;;;;;;;;;;22.99;78.77;101000.31;5116044;28;19919;-36
2022/09/13 10:20:28;;;;;;;;;;;;;;;22.97;77.89;101002.56;5115833;28;20379;-35
2022/09/13 10:23:12;;;;;;;;;;;;;;;22.94;78.48;101003.19;5116784;28;19968;-36
2022/09/13 10:25:38;;;;;;;;;;;;;;;22.95;78.33;100996.56;5116461;28;19979;-35
2022/09/13 10:28:05;;;;;;;;;;;;;;;23.06;78.33;100990.47;5115813;28;20390;-36
2022/09/13 10:30:36;;;;;;;;;;;;;;;23.19;78.29;100988.00;5115830;28;19919;-35
2022/09/13 10:33:02;;;;;;;;;;;;;;;23.00;77.21;100985.41;5115709;28;19916;-36
2022/09/13 10:35:28;;;;;;;;;;;;;;;22.97;78.32;100991.53;5115583;28;19965;-35
2022/09/13 10:37:53;;;;;;;;;;;;;;;23.11;78.49;100987.59;5115403;28;19915;-35
2022/09/13 10:40:25;;;;;;;;;;;;;;;23.10;76.69;100990.69;5115529;28;19911;-35
2022/09/13 10:42:56;;;;;;;;;;;;;;;23.10;77.58;100983.22;5115169;28;20484;-35
2022/09/13 10:45:23;;;;;;;;;;;;;;;23.26;77.46;100983.66;5115171;28;19996;-35
2022/09/13 10:47:50;;;;;;;;;;;;;;;23.42;72.28;100983.28;5115863;28;19918;-35
2022/09/13 10:50:20;;;;;;;;;;;;;;;23.49;72.36;100986.44;5115106;28;19911;-35
2022/09/13 10:52:45;;;;;;;;;;;;;;;23.43;72.35;100987.69;5115933;28;19911;-36
2022/09/13 10:55:17;;;;;;;;;;;;;;;23.39;74.00;100982.81;5115467;28;19915;-34
2022/09/13 10:57:43;;;;;;;;;;;;;;;23.30;74.78;100995.72;5114971;28;19918;-35
2022/09/13 11:00:10;;;;;;;;;;;;;;;23.20;75.33;100990.44;5115867;28;19998;-35
2022/09/13 11:02:50;;;;;;;;;;;;;;;23.13;76.08;100996.41;5115813;28;19911;-35
2022/09/13 11:05:17;;;;;;;;;;;;;;;23.07;76.27;100985.78;5114973;28;19919;-35
2022/09/13 11:07:51;;;;;;;;;;;;;;;23.03;76.57;100980.06;5115051;28;19956;-35
2022/09/13 11:10:35;;;;;;;;;;;;;;;23.01;77.00;100976.00;5114392;28;20398;-35
2022/09/13 11:13:01;;;;;;;;;;;;;;;23.02;76.87;100972.13;5114872;28;19912;-36
2022/09/13 11:15:41;;;;;;;;;;;;;;;23.03;76.43;100971.78;5114732;28;19918;-35
2022/09/13 11:18:21;;;;;;;;;;;;;;;23.02;76.04;100966.59;5114930;28;19945;-35
2022/09/13 11:21:04;;;;;;;;;;;;;;;23.03;76.63;100966.28;5104441;28;20002;-35
2022/09/13 11:23:33;;;;;;;;;;;;;;;23.07;76.34;100966.47;5113693;28;19911;-35
2022/09/13 11:26:11;;;;;;;;;;;;;;;23.11;76.41;100961.97;5108186;28;19989;-35
2022/09/13 11:28:43;;;;;;;;;;;;;;;23.20;76.40;100957.34;5094331;28;19912;-35
2022/09/13 11:31:12;;;;;;;;;;;;;;;23.24;76.10;100957.53;5113537;28;20375;-36
2022/09/13 11:33:37;;;;;;;;;;;;;;;23.29;75.63;100960.97;5101195;28;19923;-36
2022/09/13 11:36:14;;;;;;;;;;;;;;;23.32;75.35;100951.25;5094821;28;19912;-36
2022/09/13 11:38:42;;;;;;;;;;;;;;;23.31;75.48;100944.91;5093893;28;20352;-36
2022/09/13 11:41:20;;;;;;;;;;;;;;;23.30;75.68;100951.56;5093733;28;19924;-34
2022/09/13 11:43:54;;;;;;;;;;;;;;;23.27;75.85;100962.41;5095944;28;19956;-35
2022/09/13 11:46:33;;;;;;;;;;;;;;;23.12;74.91;100967.16;5115067;28;19912;-35
2022/09/13 11:48:59;;;;;;;;;;;;;;;23.13;75.27;100954.19;5114830;28;19943;-35
2022/09/13 11:51:50;;;;;;;;;;;;;;;23.21;74.77;100964.47;5113021;28;20014;-35
2022/09/13 11:54:29;;;;;;;;;;;;;;;23.46;75.50;100959.47;5114175;28;19911;-35
2022/09/13 11:56:57;;;;;;;;;;;;;;;23.73;75.73;100956.56;5113974;28;20375;-36
2022/09/13 11:59:36;;;;;;;;;;;;;;;24.10;75.53;100943.41;5114190;28;19934;-36
2022/09/13 12:02:20;;;;;;;;;;;;;;;24.48;70.59;100951.19;5114120;27;19915;-36
2022/09/13 12:04:51;;;;;;;;;;;;;;;24.76;71.95;100949.78;5114607;28;19962;-36
2022/09/13 12:07:24;;;;;;;;;;;;;;;24.78;72.48;100947.47;5114178;28;19911;-36
2022/09/13 12:09:57;;;;;;;;;;;;;;;24.54;70.25;100947.94;5114526;28;20005;-36
2022/09/13 12:12:25;;;;;;;;;;;;;;;24.32;71.84;100953.56;5114334;28;19962;-36
2022/09/13 12:14:57;;;;;;;;;;;;;;;24.13;72.83;100951.06;5113894;28;19912;-37
2022/09/13 12:17:33;;;;;;;;;;;;;;;23.99;73.60;100961.41;5113915;28;20401;-35
2022/09/13 12:19:59;;;;;;;;;;;;;;;23.88;74.11;100953.41;5114452;28;19916;-35
2022/09/13 12:22:27;;;;;;;;;;;;;;;23.79;74.22;100951.72;5113551;28;19918;-35
2022/09/13 12:24:55;;;;;;;;;;;;;;;23.85;75.01;100950.44;5113799;28;20291;-36
2022/09/13 12:27:30;;;;;;;;;;;;;;;24.13;72.28;100951.06;5114398;28;19911;-35
2022/09/13 12:30:14;;;;;;;;;;;;;;;24.27;73.19;100935.19;5114060;28;19919;-35
2022/09/13 12:32:41;;;;;;;;;;;;;;;24.64;73.24;100938.53;5114285;28;19943;-35
2022/09/13 12:35:15;;;;;;;;;;;;;;;24.99;72.48;100930.28;5114187;28;19912;-35
2022/09/13 12:38:03;;;;;;;;;;;;;;;25.17;69.54;100929.13;5113892;28;19916;-35
2022/09/13 12:41:06;;;;;;;;;;;;;;;25.07;69.77;100935.00;5113952;28;19912;-34
2022/09/13 12:43:50;;;;;;;;;;;;;;;25.02;71.00;100932.38;5031443;28;19962;-35
2022/09/13 12:46:15;;;;;;;;;;;;;;;24.95;71.37;100927.34;5030694;28;19914;-35